Time;durP1;ratioP1;P1;durP2;ratioP2;P2;SDS_P1;SDS_P2;PMS_P1;PMS_P2;Temp;Humidity;BMP_temperature;BMP_pressure;BME280_temperature;BME280_humidity;BME280_pressure;Samples;Min_cycle;Max_cycle;Signal;HPM_P1;HPM_P2
2023/05/26 00:00:34;;;;;;;12.30;6.60;;;;;;;;;;110133;1280;22323;-78
2023/05/26 00:03:21;;;;;;;14.10;6.00;;;;;;;;;;110169;1259;22202;-78
2023/05/26 00:05:49;;;;;;;12.70;6.60;;;;;;;;;;109991;1281;22106;-79
2023/05/26 00:08:16;;;;;;;11.80;5.70;;;;;;;;;;110115;1281;23157;-78
2023/05/26 00:10:44;;;;;;;14.20;6.20;;;;;;;;;;110082;1281;22114;-78
2023/05/26 00:13:12;;;;;;;13.00;6.20;;;;;;;;;;110097;1257;22201;-78
2023/05/26 00:15:41;;;;;;;13.10;5.60;;;;;;;;;;110163;1280;22135;-78
2023/05/26 00:18:08;;;;;;;12.80;6.20;;;;;;;;;;110151;1281;22153;-78
2023/05/26 00:20:36;;;;;;;15.10;7.30;;;;;;;;;;110171;1280;22994;-79
2023/05/26 00:23:04;;;;;;;13.90;6.30;;;;;;;;;;110094;1280;22383;-79
2023/05/26 00:25:32;;;;;;;12.00;6.80;;;;;;;;;;110116;1262;22160;-78
2023/05/26 00:28:02;;;;;;;13.80;6.10;;;;;;;;;;110062;1281;22118;-79
2023/05/26 00:30:30;;;;;;;12.90;5.70;;;;;;;;;;110077;1281;22333;-78
2023/05/26 00:32:58;;;;;;;16.70;6.70;;;;;;;;;;110090;1281;22118;-80
2023/05/26 00:35:26;;;;;;;13.20;5.60;;;;;;;;;;110422;1260;22112;-78
2023/05/26 00:37:54;;;;;;;11.80;6.10;;;;;;;;;;110107;1280;22145;-79
2023/05/26 00:40:21;;;;;;;13.20;6.40;;;;;;;;;;110092;1280;22097;-79
2023/05/26 00:42:49;;;;;;;13.20;6.20;;;;;;;;;;110158;1281;22140;-79
2023/05/26 00:45:19;;;;;;;13.50;6.30;;;;;;;;;;110283;1259;22130;-79
2023/05/26 00:47:47;;;;;;;12.50;5.90;;;;;;;;;;109980;1281;22720;-79
2023/05/26 00:50:16;;;;;;;14.60;5.80;;;;;;;;;;110025;1281;22741;-79
2023/05/26 00:52:46;;;;;;;14.60;6.10;;;;;;;;;;110075;1274;22111;-78
2023/05/26 00:55:15;;;;;;;13.20;6.30;;;;;;;;;;110274;1259;23110;-78
2023/05/26 00:57:44;;;;;;;13.30;5.80;;;;;;;;;;110046;1281;22103;-79
2023/05/26 01:00:15;;;;;;;13.20;6.00;;;;;;;;;;110056;1281;22163;-79
2023/05/26 01:02:46;;;;;;;14.40;6.10;;;;;;;;;;110121;1281;22193;-78
2023/05/26 01:05:15;;;;;;;14.20;6.70;;;;;;;;;;110214;1263;22846;-78
2023/05/26 01:07:44;;;;;;;11.50;5.40;;;;;;;;;;110073;1282;22094;-78
2023/05/26 01:10:13;;;;;;;14.40;6.50;;;;;;;;;;110049;1282;22149;-79
2023/05/26 01:13:02;;;;;;;13.60;6.70;;;;;;;;;;109994;1282;22126;-79
2023/05/26 01:15:38;;;;;;;12.50;6.60;;;;;;;;;;110239;1262;22037;-78
2023/05/26 01:18:10;;;;;;;11.00;6.20;;;;;;;;;;110146;1281;22899;-78
2023/05/26 01:21:09;;;;;;;13.80;6.10;;;;;;;;;;110101;1281;22035;-79
2023/05/26 01:24:06;;;;;;;15.60;6.30;;;;;;;;;;110153;1281;22079;-79
2023/05/26 01:27:01;;;;;;;13.00;5.50;;;;;;;;;;110509;1262;22207;-79
2023/05/26 01:29:35;;;;;;;15.10;6.50;;;;;;;;;;110045;1281;22136;-79
2023/05/26 01:32:15;;;;;;;14.20;6.90;;;;;;;;;;110044;1282;22411;-80
2023/05/26 01:34:44;;;;;;;15.20;7.10;;;;;;;;;;110061;1257;22147;-78
2023/05/26 01:37:14;;;;;;;14.40;6.00;;;;;;;;;;110046;1281;22097;-79
2023/05/26 01:39:43;;;;;;;15.60;7.10;;;;;;;;;;110070;1281;22834;-80
2023/05/26 01:42:19;;;;;;;13.80;6.40;;;;;;;;;;110134;1281;22117;-79
2023/05/26 01:55:07;;;;;;;15.40;6.70;;;;;;;;;;103809;1292;545865;-79
2023/05/26 01:57:38;;;;;;;13.00;5.90;;;;;;;;;;106146;1287;22652;-79
2023/05/26 02:00:37;;;;;;;12.90;7.00;;;;;;;;;;106321;1288;23284;-78
2023/05/26 02:03:17;;;;;;;;;;;;;;;;;;;;;
2023/05/26 02:06:09;;;;;;;15.50;6.80;;;;;;;;;;106333;1277;23957;-87
2023/05/26 02:08:36;;;;;;;15.10;7.00;;;;;;;;;;102526;1284;5379236;-84
2023/05/26 02:11:25;;;;;;;13.90;6.30;;;;;;;;;;106409;1284;25252;-85
2023/05/26 02:14:18;;;;;;;13.50;6.50;;;;;;;;;;106452;1279;22557;-79
2023/05/26 02:17:43;;;;;;;15.20;6.30;;;;;;;;;;106395;1275;22644;-83
2023/05/26 02:20:12;;;;;;;15.00;6.30;;;;;;;;;;106434;1284;22581;-86
2023/05/26 02:22:39;;;;;;;16.10;6.50;;;;;;;;;;106388;1285;25482;-84
2023/05/26 02:25:15;;;;;;;15.20;6.90;;;;;;;;;;106406;1285;22767;-82
2023/05/26 02:27:45;;;;;;;13.40;6.60;;;;;;;;;;106420;1264;22542;-85
2023/05/26 02:30:19;;;;;;;13.50;5.80;;;;;;;;;;106427;1285;24196;-86
2023/05/26 02:32:52;;;;;;;13.60;6.20;;;;;;;;;;106411;1285;24228;-84
2023/05/26 02:35:21;;;;;;;16.60;6.70;;;;;;;;;;106422;1285;22668;-87
2023/05/26 02:37:51;;;;;;;16.70;6.50;;;;;;;;;;106423;1268;22732;-84
2023/05/26 02:40:41;;;;;;;13.00;5.80;;;;;;;;;;106452;1285;22665;-86
2023/05/26 02:46:45;;;;;;;14.50;5.90;;;;;;;;;;106406;1264;22536;-86
2023/05/26 02:49:23;;;;;;;15.20;6.60;;;;;;;;;;106265;1285;22541;-81
2023/05/26 02:55:57;;;;;;;18.20;7.10;;;;;;;;;;106448;1285;22543;-85
2023/05/26 02:58:28;;;;;;;14.60;6.50;;;;;;;;;;106397;1267;24265;-87
2023/05/26 03:01:06;;;;;;;16.10;6.10;;;;;;;;;;106449;1285;22520;-87
2023/05/26 03:03:35;;;;;;;15.10;6.20;;;;;;;;;;106237;1284;22546;-82
2023/05/26 03:13:21;;;;;;;15.90;7.50;;;;;;;;;;105784;1293;22581;-81
2023/05/26 03:15:56;;;;;;;13.20;6.00;;;;;;;;;;105726;1293;24269;-84
2023/05/26 03:18:28;;;;;;;16.40;6.60;;;;;;;;;;105702;1276;25360;-83
2023/05/26 03:21:06;;;;;;;15.50;6.50;;;;;;;;;;106007;1290;22668;-81
2023/05/26 03:24:01;;;;;;;16.80;6.20;;;;;;;;;;105990;1290;22540;-84
2023/05/26 03:29:51;;;;;;;;;;;;;;;;;;;;;
2023/05/26 03:32:42;;;;;;;;;;;;;;;;;;;;;
2023/05/26 03:35:42;;;;;;;15.20;6.20;;;;;;;;;;106760;1278;22523;-84
2023/05/26 03:38:42;;;;;;;;;;;;;;;;;;;;;
2023/05/26 03:42:02;;;;;;;16.50;5.80;;;;;;;;;;106401;1284;22536;-82
2023/05/26 03:44:48;;;;;;;;;;;;;;;;;;;;;
2023/05/26 03:47:41;;;;;;;17.80;5.80;;;;;;;;;;106183;1286;22540;-85
2023/05/26 03:50:52;;;;;;;17.50;6.10;;;;;;;;;;106185;1279;22799;-84
2023/05/26 04:01:32;;;;;;;15.30;6.00;;;;;;;;;;105876;1294;22536;-79
2023/05/26 04:04:14;;;;;;;12.70;5.30;;;;;;;;;;105797;1294;23913;-81
2023/05/26 04:07:43;;;;;;;;;;;;;;;;;;;;;
2023/05/26 04:14:37;;;;;;;14.20;4.90;;;;;;;;;;104969;1303;22688;-84
2023/05/26 04:19:44;;;;;;;16.60;5.70;;;;;;;;;;107175;1254;24013;-82
2023/05/26 04:22:21;;;;;;;17.50;5.60;;;;;;;;;;106919;1257;23913;-84
2023/05/26 04:26:03;;;;;;;16.70;6.10;;;;;;;;;;106396;1284;26629;-84
2023/05/26 04:29:22;;;;;;;13.30;6.00;;;;;;;;;;106168;1287;22551;-80
2023/05/26 04:32:28;;;;;;;16.10;5.70;;;;;;;;;;106049;1264;25318;-84
2023/05/26 04:35:04;;;;;;;13.70;5.70;;;;;;;;;;105771;1294;22591;-86
2023/05/26 04:37:39;;;;;;;17.70;5.30;;;;;;;;;;105749;1294;22997;-81
2023/05/26 04:40:06;;;;;;;12.70;5.20;;;;;;;;;;105706;1294;24196;-86
2023/05/26 04:42:37;;;;;;;16.40;6.10;;;;;;;;;;105739;1286;26998;-84
2023/05/26 04:45:14;;;;;;;14.70;5.50;;;;;;;;;;105749;1292;24603;-84
2023/05/26 04:48:05;;;;;;;16.60;5.90;;;;;;;;;;105784;1292;25356;-83
2023/05/26 04:50:41;;;;;;;17.80;5.90;;;;;;;;;;105734;1292;24218;-84
2023/05/26 04:53:18;;;;;;;13.80;6.10;;;;;;;;;;105761;1276;25297;-82
2023/05/26 04:55:50;;;;;;;17.50;5.80;;;;;;;;;;105765;1294;25331;-79
2023/05/26 04:58:20;;;;;;;14.30;5.40;;;;;;;;;;105760;1293;25348;-81
2023/05/26 05:01:21;;;;;;;18.20;6.70;;;;;;;;;;105795;1293;22544;-84
2023/05/26 05:03:53;;;;;;;19.00;6.20;;;;;;;;;;105959;1288;22517;-81
2023/05/26 05:09:44;;;;;;;18.90;6.40;;;;;;;;;;107172;1275;23084;-82
2023/05/26 05:12:13;;;;;;;19.00;6.20;;;;;;;;;;106873;1275;22538;-84
2023/05/26 05:14:40;;;;;;;13.20;5.60;;;;;;;;;;106740;1260;25291;-83
2023/05/26 05:18:06;;;;;;;;;;;;;;;;;;;;;
2023/05/26 05:20:53;;;;;;;15.80;4.90;;;;;;;;;;106102;1267;22580;-80
2023/05/26 05:23:20;;;;;;;15.70;4.60;;;;;;;;;;106030;1270;22771;-84
2023/05/26 05:26:26;;;;;;;17.70;5.20;;;;;;;;;;106045;1287;24267;-85
2023/05/26 05:28:53;;;;;;;14.70;5.10;;;;;;;;;;106168;1287;22821;-79
2023/05/26 05:32:07;;;;;;;14.80;4.80;;;;;;;;;;106134;1287;24292;-84
2023/05/26 05:34:42;;;;;;;12.10;4.10;;;;;;;;;;106132;1266;22845;-81
2023/05/26 05:44:10;;;;;;;16.30;5.30;;;;;;;;;;106498;1262;22541;-84
2023/05/26 05:50:07;;;;;;;15.40;4.70;;;;;;;;;;106641;1281;26500;-86
2023/05/26 05:52:52;;;;;;;;;;;;;;;;;;;;;
2023/05/26 05:56:12;;;;;;;15.20;4.40;;;;;;;;;;106322;1286;23745;-83
2023/05/26 05:59:11;;;;;;;;;;;;;;;;;;;;;
2023/05/26 06:09:43;;;;;;;16.50;4.40;;;;;;;;;;106599;1276;22537;-86
2023/05/26 06:12:13;;;;;;;16.20;4.20;;;;;;;;;;106953;1276;25350;-82
2023/05/26 06:18:44;;;;;;;12.50;4.20;;;;;;;;;;106588;1275;25436;-81
2023/05/26 06:21:15;;;;;;;17.30;4.70;;;;;;;;;;106904;1275;23342;-87
2023/05/26 06:24:29;;;;;;;14.30;4.30;;;;;;;;;;106560;1281;22625;-78
2023/05/26 06:26:59;;;;;;;13.40;4.40;;;;;;;;;;106638;1272;23357;-81
2023/05/26 06:29:29;;;;;;;16.80;4.60;;;;;;;;;;106634;1281;22729;-79
2023/05/26 06:35:52;;;;;;;15.40;4.40;;;;;;;;;;106246;1265;24257;-89
2023/05/26 06:38:23;;;;;;;16.50;4.90;;;;;;;;;;106153;1287;22533;-81
2023/05/26 06:40:56;;;;;;;18.90;5.20;;;;;;;;;;106168;1287;24594;-82
2023/05/26 06:43:23;;;;;;;15.80;4.40;;;;;;;;;;106061;1287;22533;-87
2023/05/26 06:46:10;;;;;;;15.10;4.60;;;;;;;;;;106131;1286;25530;-82
2023/05/26 06:48:40;;;;;;;18.80;4.30;;;;;;;;;;106311;1286;24232;-84
2023/05/26 06:51:25;;;;;;;14.00;4.40;;;;;;;;;;106083;1286;24097;-81
2023/05/26 06:54:13;;;;;;;16.60;5.00;;;;;;;;;;106265;1286;22553;-83
2023/05/26 07:00:57;;;;;;;13.30;3.80;;;;;;;;;;105805;1289;22515;-80
2023/05/26 07:03:29;;;;;;;15.00;4.40;;;;;;;;;;105994;1289;25084;-83
2023/05/26 07:09:48;;;;;;;16.70;5.10;;;;;;;;;;105865;1295;23492;-82
2023/05/26 07:12:18;;;;;;;15.70;5.00;;;;;;;;;;105901;1289;24333;-81
2023/05/26 07:14:48;;;;;;;13.50;4.20;;;;;;;;;;106025;1289;22598;-83
2023/05/26 07:17:15;;;;;;;15.10;4.60;;;;;;;;;;106011;1273;22540;-81
2023/05/26 07:19:44;;;;;;;14.50;4.20;;;;;;;;;;105999;1289;24188;-87
2023/05/26 07:22:13;;;;;;;16.70;5.10;;;;;;;;;;106023;1289;25348;-80
2023/05/26 07:24:53;;;;;;;17.40;4.60;;;;;;;;;;105968;1289;23930;-85
2023/05/26 07:27:46;;;;;;;;;;;;;;;;;;;;;
2023/05/26 07:34:24;;;;;;;;;;;;;;;;;;;;;
2023/05/26 07:37:34;;;;;;;15.00;5.20;;;;;;;;;;105787;1284;24677;-78
2023/05/26 07:40:11;;;;;;;16.30;5.10;;;;;;;;;;106502;1276;24243;-82
2023/05/26 07:42:41;;;;;;;16.00;5.60;;;;;;;;;;106928;1276;24230;-81
2023/05/26 07:45:10;;;;;;;14.50;5.00;;;;;;;;;;107008;1276;25269;-87
2023/05/26 07:47:37;;;;;;;18.00;4.60;;;;;;;;;;106882;1257;22524;-82
2023/05/26 07:50:04;;;;;;;12.70;3.40;;;;;;;;;;107022;1275;22527;-84
2023/05/26 07:52:51;;;;;;;14.90;3.90;;;;;;;;;;106921;1275;25420;-85
2023/05/26 07:55:18;;;;;;;15.70;4.20;;;;;;;;;;106989;1275;22548;-82
2023/05/26 07:57:45;;;;;;;15.40;4.10;;;;;;;;;;107016;1275;22517;-86
2023/05/26 08:00:12;;;;;;;16.40;4.10;;;;;;;;;;107231;1275;22517;-82
2023/05/26 08:02:42;;;;;;;17.10;4.40;;;;;;;;;;107155;1275;22524;-84
2023/05/26 08:05:12;;;;;;;14.30;4.90;;;;;;;;;;106876;1270;24225;-84
2023/05/26 08:07:39;;;;;;;14.80;4.20;;;;;;;;;;106802;1259;22517;-82
2023/05/26 08:10:06;;;;;;;17.10;4.10;;;;;;;;;;106692;1275;22772;-79
2023/05/26 08:12:33;;;;;;;15.40;3.70;;;;;;;;;;106924;1276;22530;-84
2023/05/26 08:15:13;;;;;;;14.60;3.90;;;;;;;;;;107036;1276;25221;-86
2023/05/26 08:17:41;;;;;;;13.20;4.00;;;;;;;;;;106992;1259;25224;-83
2023/05/26 08:20:24;;;;;;;15.00;4.00;;;;;;;;;;106819;1276;25286;-83
2023/05/26 08:23:03;;;;;;;15.00;4.00;;;;;;;;;;106773;1275;25493;-84
2023/05/26 08:25:30;;;;;;;12.80;3.50;;;;;;;;;;106748;1275;24280;-83
2023/05/26 08:28:00;;;;;;;13.20;3.80;;;;;;;;;;106836;1267;24244;-83
2023/05/26 08:30:32;;;;;;;12.50;3.40;;;;;;;;;;106988;1276;22979;-82
2023/05/26 08:33:02;;;;;;;12.50;3.60;;;;;;;;;;106766;1276;22555;-81
2023/05/26 08:35:49;;;;;;;11.10;3.30;;;;;;;;;;106729;1275;22519;-85
2023/05/26 08:38:34;;;;;;;;;;;;;;;;;;;;;
2023/05/26 08:41:15;;;;;;;13.20;3.80;;;;;;;;;;107066;1272;22534;-85
2023/05/26 08:43:42;;;;;;;14.20;4.30;;;;;;;;;;106871;1276;25360;-88
2023/05/26 08:46:30;;;;;;;14.30;3.90;;;;;;;;;;107095;1272;24253;-85
2023/05/26 08:49:23;;;;;;;13.10;3.40;;;;;;;;;;107044;1276;22520;-84
2023/05/26 08:52:11;;;;;;;16.10;4.20;;;;;;;;;;107011;1272;24226;-82
2023/05/26 08:54:41;;;;;;;14.40;4.50;;;;;;;;;;106976;1270;24196;-81
2023/05/26 08:57:09;;;;;;;14.70;4.40;;;;;;;;;;106868;1272;22783;-84
2023/05/26 08:59:46;;;;;;;13.40;3.70;;;;;;;;;;106611;1261;24266;-81
2023/05/26 09:02:19;;;;;;;11.70;3.70;;;;;;;;;;107119;1275;25894;-85
2023/05/26 09:07:37;;;;;;;;;;;;;;;;;;;;;
2023/05/26 09:11:24;;;;;;;16.80;4.30;;;;;;;;;;106588;1262;22570;-87
2023/05/26 09:13:51;;;;;;;12.40;4.00;;;;;;;;;;106423;1280;25144;-82
2023/05/26 09:16:44;;;;;;;17.50;4.30;;;;;;;;;;106825;1280;22538;-89
2023/05/26 09:19:18;;;;;;;14.50;4.00;;;;;;;;;;106363;1262;22533;-86
2023/05/26 09:21:49;;;;;;;12.80;4.20;;;;;;;;;;106659;1276;26758;-86
2023/05/26 09:24:20;;;;;;;13.30;4.20;;;;;;;;;;106922;1273;22547;-81
2023/05/26 09:26:52;;;;;;;14.70;3.90;;;;;;;;;;106919;1273;22524;-85
2023/05/26 09:29:19;;;;;;;11.70;3.80;;;;;;;;;;106943;1270;22634;-83
2023/05/26 09:31:50;;;;;;;15.80;3.90;;;;;;;;;;106748;1276;22539;-81
2023/05/26 09:34:21;;;;;;;14.20;4.00;;;;;;;;;;106842;1253;22517;-80
2023/05/26 09:36:51;;;;;;;11.10;3.40;;;;;;;;;;106834;1273;22095;-82
2023/05/26 09:42:55;;;;;;;11.10;3.30;;;;;;;;;;106890;1256;22542;-81
2023/05/26 09:45:23;;;;;;;10.80;3.30;;;;;;;;;;106727;1277;22526;-83
2023/05/26 09:48:02;;;;;;;13.80;3.10;;;;;;;;;;107120;1269;22649;-79
2023/05/26 09:50:33;;;;;;;13.30;3.70;;;;;;;;;;106641;1276;22760;-81
2023/05/26 09:53:04;;;;;;;14.10;3.60;;;;;;;;;;106891;1276;24218;-83
2023/05/26 09:59:07;;;;;;;13.30;3.60;;;;;;;;;;106472;1276;22571;-84
2023/05/26 10:02:08;;;;;;;11.20;3.30;;;;;;;;;;106367;1265;22713;-86
2023/05/26 10:04:35;;;;;;;13.10;3.40;;;;;;;;;;106404;1282;24231;-79
2023/05/26 10:07:18;;;;;;;;;;;;;;;;;;;;;
2023/05/26 10:09:52;;;;;;;16.00;4.10;;;;;;;;;;106307;1283;22529;-85
2023/05/26 10:12:30;;;;;;;14.50;3.70;;;;;;;;;;106307;1263;25480;-79
2023/05/26 10:18:36;;;;;;;13.40;4.20;;;;;;;;;;106221;1283;22540;-79
2023/05/26 10:21:05;;;;;;;14.30;3.80;;;;;;;;;;106027;1264;25238;-84
2023/05/26 10:23:52;;;;;;;12.00;3.30;;;;;;;;;;106160;1283;22561;-83
2023/05/26 10:26:37;;;;;;;14.40;4.30;;;;;;;;;;106088;1287;22533;-80
2023/05/26 10:29:09;;;;;;;15.00;4.20;;;;;;;;;;106300;1282;22499;-87
2023/05/26 10:31:46;;;;;;;13.00;3.60;;;;;;;;;;106496;1262;22617;-83
2023/05/26 10:37:31;;;;;;;13.10;3.70;;;;;;;;;;106645;1280;22714;-78
2023/05/26 10:40:01;;;;;;;18.50;4.50;;;;;;;;;;106413;1280;22534;-82
2023/05/26 10:42:30;;;;;;;12.00;3.80;;;;;;;;;;106629;1269;24254;-81
2023/05/26 10:44:57;;;;;;;16.70;3.80;;;;;;;;;;106976;1276;22570;-77
2023/05/26 10:47:30;;;;;;;14.50;3.50;;;;;;;;;;107097;1265;22639;-81
2023/05/26 10:49:59;;;;;;;13.70;4.10;;;;;;;;;;107061;1269;25414;-82
2023/05/26 10:52:27;;;;;;;12.40;3.30;;;;;;;;;;107063;1256;22557;-82
2023/05/26 10:55:07;;;;;;;14.70;3.80;;;;;;;;;;106734;1276;26494;-79
2023/05/26 10:57:34;;;;;;;12.20;3.60;;;;;;;;;;106969;1273;25238;-78
2023/05/26 11:00:18;;;;;;;11.70;3.50;;;;;;;;;;107012;1276;25250;-82
2023/05/26 11:02:45;;;;;;;10.80;3.80;;;;;;;;;;106974;1253;24326;-86
2023/05/26 11:05:29;;;;;;;13.20;3.70;;;;;;;;;;106994;1276;22553;-82
2023/05/26 11:11:50;;;;;;;16.90;3.70;;;;;;;;;;106940;1276;23008;-81
2023/05/26 11:14:21;;;;;;;10.40;2.90;;;;;;;;;;107380;1256;25437;-83
2023/05/26 11:16:55;;;;;;;9.40;2.90;;;;;;;;;;107170;1272;25385;-81
2023/05/26 11:22:31;;;;;;;10.20;3.10;;;;;;;;;;106958;1254;22527;-84
2023/05/26 11:25:01;;;;;;;11.00;3.30;;;;;;;;;;106787;1275;24295;-82
2023/05/26 11:27:32;;;;;;;12.60;3.10;;;;;;;;;;106748;1275;24347;-82
2023/05/26 11:30:02;;;;;;;17.20;4.10;;;;;;;;;;106807;1271;25381;-82
2023/05/26 11:32:33;;;;;;;11.90;3.00;;;;;;;;;;106918;1253;23662;-84
2023/05/26 11:35:00;;;;;;;10.10;3.00;;;;;;;;;;106924;1275;22773;-82
2023/05/26 11:37:28;;;;;;;12.80;3.70;;;;;;;;;;106905;1272;23375;-79
2023/05/26 11:39:56;;;;;;;8.90;2.70;;;;;;;;;;106936;1269;25532;-87
2023/05/26 11:42:26;;;;;;;12.50;3.00;;;;;;;;;;106818;1276;24316;-81
2023/05/26 11:44:55;;;;;;;11.10;2.90;;;;;;;;;;106881;1269;25495;-80
2023/05/26 11:47:27;;;;;;;11.80;3.30;;;;;;;;;;106832;1276;22751;-82
2023/05/26 11:49:56;;;;;;;10.20;2.60;;;;;;;;;;106954;1273;24203;-82
2023/05/26 11:52:24;;;;;;;10.60;2.90;;;;;;;;;;107080;1270;22479;-83
2023/05/26 11:54:59;;;;;;;12.80;2.80;;;;;;;;;;106965;1259;25519;-80
2023/05/26 11:57:36;;;;;;;9.80;3.00;;;;;;;;;;106912;1268;22520;-82
2023/05/26 12:00:09;;;;;;;9.90;3.20;;;;;;;;;;107073;1272;22708;-83
2023/05/26 12:02:36;;;;;;;11.90;3.40;;;;;;;;;;107261;1272;23935;-81
2023/05/26 12:05:19;;;;;;;12.00;3.20;;;;;;;;;;106867;1260;23914;-83
2023/05/26 12:08:00;;;;;;;11.70;3.10;;;;;;;;;;106855;1272;22547;-84
2023/05/26 12:10:30;;;;;;;11.90;3.00;;;;;;;;;;106900;1272;24228;-82
2023/05/26 12:12:58;;;;;;;12.30;3.60;;;;;;;;;;107069;1266;23115;-81
2023/05/26 12:15:25;;;;;;;12.30;3.60;;;;;;;;;;106911;1257;22518;-84
2023/05/26 12:17:53;;;;;;;11.30;3.20;;;;;;;;;;107042;1269;24294;-80
2023/05/26 12:20:20;;;;;;;11.80;3.30;;;;;;;;;;107129;1269;22784;-78
2023/05/26 12:23:08;;;;;;;10.00;3.10;;;;;;;;;;107168;1271;22535;-86
2023/05/26 12:25:35;;;;;;;9.80;2.80;;;;;;;;;;107083;1256;22539;-78
2023/05/26 12:28:02;;;;;;;11.60;3.30;;;;;;;;;;107182;1272;24190;-79
2023/05/26 12:30:33;;;;;;;11.30;3.40;;;;;;;;;;107121;1262;24219;-78
2023/05/26 12:33:13;;;;;;;;;;;;;;;;;;;;;
2023/05/26 12:35:44;;;;;;;12.20;3.00;;;;;;;;;;106983;1273;23201;-82
2023/05/26 12:38:23;;;;;;;11.90;3.70;;;;;;;;;;106888;1272;25277;-80
2023/05/26 12:40:53;;;;;;;12.30;3.10;;;;;;;;;;106906;1274;24249;-84
2023/05/26 12:43:21;;;;;;;12.40;2.90;;;;;;;;;;106903;1275;25290;-79
2023/05/26 12:45:59;;;;;;;10.50;3.10;;;;;;;;;;107290;1257;22593;-82
2023/05/26 12:48:27;;;;;;;11.00;2.70;;;;;;;;;;106992;1274;22542;-77
2023/05/26 12:50:54;;;;;;;13.20;3.00;;;;;;;;;;106941;1268;24050;-83
2023/05/26 12:53:22;;;;;;;10.90;2.60;;;;;;;;;;106816;1257;22523;-84
2023/05/26 12:55:58;;;;;;;10.10;2.80;;;;;;;;;;107117;1256;22520;-80
2023/05/26 12:58:25;;;;;;;10.70;3.10;;;;;;;;;;107188;1272;22539;-84
2023/05/26 13:00:55;;;;;;;9.20;2.90;;;;;;;;;;106665;1266;25258;-90
2023/05/26 13:03:26;;;;;;;12.20;2.80;;;;;;;;;;106944;1268;24273;-81
2023/05/26 13:05:56;;;;;;;9.90;2.50;;;;;;;;;;106857;1260;24938;-82
2023/05/26 13:08:35;;;;;;;11.00;3.40;;;;;;;;;;106958;1276;22183;-80
2023/05/26 13:11:03;;;;;;;10.10;2.60;;;;;;;;;;106827;1276;25404;-78
2023/05/26 13:13:33;;;;;;;9.50;2.40;;;;;;;;;;106993;1255;22526;-80
2023/05/26 13:16:00;;;;;;;11.80;3.30;;;;;;;;;;107193;1253;24192;-76
2023/05/26 13:18:30;;;;;;;9.00;2.70;;;;;;;;;;106916;1275;24255;-81
2023/05/26 13:21:19;;;;;;;10.00;3.00;;;;;;;;;;107103;1267;23418;-81
2023/05/26 13:23:46;;;;;;;9.30;2.70;;;;;;;;;;107240;1269;22658;-79
2023/05/26 13:26:13;;;;;;;10.60;3.20;;;;;;;;;;106865;1275;22522;-80
2023/05/26 13:28:40;;;;;;;14.80;3.20;;;;;;;;;;106976;1274;22956;-82
2023/05/26 13:31:17;;;;;;;11.10;3.00;;;;;;;;;;107043;1272;22517;-81
2023/05/26 13:33:44;;;;;;;10.90;3.10;;;;;;;;;;106912;1276;22482;-87
2023/05/26 13:36:34;;;;;;;10.30;3.00;;;;;;;;;;106880;1262;25396;-81
2023/05/26 13:39:01;;;;;;;11.20;3.20;;;;;;;;;;107090;1272;24402;-78
2023/05/26 13:41:28;;;;;;;11.40;3.40;;;;;;;;;;106984;1271;24196;-86
2023/05/26 13:51:00;;;;;;;13.60;3.30;;;;;;;;;;103895;1295;544933;-79
2023/05/26 13:53:27;;;;;;;11.20;3.00;;;;;;;;;;106171;1281;22534;-77
2023/05/26 13:55:57;;;;;;;9.00;2.80;;;;;;;;;;106197;1280;24259;-81
2023/05/26 13:58:24;;;;;;;10.60;3.00;;;;;;;;;;106061;1278;22771;-79
2023/05/26 14:00:51;;;;;;;11.90;3.10;;;;;;;;;;106155;1269;23007;-82
2023/05/26 14:03:19;;;;;;;11.90;2.70;;;;;;;;;;106084;1284;22540;-79
2023/05/26 14:05:46;;;;;;;9.50;2.70;;;;;;;;;;104146;1282;3117744;-82
2023/05/26 14:08:13;;;;;;;10.70;3.40;;;;;;;;;;106427;1279;25363;-78
2023/05/26 14:10:41;;;;;;;14.50;3.40;;;;;;;;;;106505;1266;22634;-86
2023/05/26 14:13:08;;;;;;;12.60;3.10;;;;;;;;;;106462;1285;22549;-80
2023/05/26 14:15:35;;;;;;;11.30;2.80;;;;;;;;;;106467;1282;24251;-82
2023/05/26 14:18:02;;;;;;;10.80;2.70;;;;;;;;;;106449;1275;22831;-80
2023/05/26 14:20:29;;;;;;;10.20;2.70;;;;;;;;;;106410;1285;22646;-80
2023/05/26 14:23:03;;;;;;;9.40;2.60;;;;;;;;;;106378;1285;22545;-80
2023/05/26 14:25:32;;;;;;;9.00;3.20;;;;;;;;;;106570;1285;21741;-78
2023/05/26 14:27:59;;;;;;;9.50;2.60;;;;;;;;;;106521;1285;24216;-85
2023/05/26 14:30:32;;;;;;;9.70;2.70;;;;;;;;;;106402;1285;22647;-79
2023/05/26 14:33:02;;;;;;;9.90;2.90;;;;;;;;;;106434;1267;22537;-84
2023/05/26 14:35:30;;;;;;;13.70;3.20;;;;;;;;;;106378;1285;24187;-80
2023/05/26 14:37:56;;;;;;;12.90;3.30;;;;;;;;;;106456;1285;25837;-83
2023/05/26 14:40:23;;;;;;;10.60;2.90;;;;;;;;;;106432;1279;22963;-80
2023/05/26 14:42:50;;;;;;;10.50;3.00;;;;;;;;;;106142;1269;22659;-82
2023/05/26 14:45:17;;;;;;;8.40;3.10;;;;;;;;;;106342;1279;25338;-80
2023/05/26 14:47:45;;;;;;;13.10;3.50;;;;;;;;;;106168;1285;22529;-85
2023/05/26 14:50:12;;;;;;;12.60;3.30;;;;;;;;;;106362;1279;25210;-78
2023/05/26 14:52:39;;;;;;;14.90;3.70;;;;;;;;;;106406;1266;22571;-84
2023/05/26 14:55:08;;;;;;;15.30;4.10;;;;;;;;;;106384;1279;22539;-82
2023/05/26 14:57:35;;;;;;;10.60;2.70;;;;;;;;;;106158;1285;23688;-81
2023/05/26 15:00:05;;;;;;;8.90;2.60;;;;;;;;;;106051;1281;22540;-79
2023/05/26 15:02:35;;;;;;;15.10;3.70;;;;;;;;;;105832;1271;22656;-79
2023/05/26 15:05:03;;;;;;;10.30;2.90;;;;;;;;;;106071;1280;25451;-81
2023/05/26 15:07:30;;;;;;;8.70;2.80;;;;;;;;;;106020;1285;22546;-82
2023/05/26 15:09:57;;;;;;;9.50;2.80;;;;;;;;;;106065;1285;24402;-80
2023/05/26 15:12:24;;;;;;;8.40;2.60;;;;;;;;;;106083;1280;25349;-80
2023/05/26 15:14:51;;;;;;;8.70;2.60;;;;;;;;;;106390;1286;22511;-84
2023/05/26 15:17:18;;;;;;;8.70;2.40;;;;;;;;;;106558;1279;22546;-82
2023/05/26 15:19:45;;;;;;;9.40;2.50;;;;;;;;;;106336;1279;25390;-80
2023/05/26 15:22:12;;;;;;;8.10;2.50;;;;;;;;;;106291;1269;22530;-83
2023/05/26 15:24:39;;;;;;;7.70;2.70;;;;;;;;;;106385;1282;24230;-82
2023/05/26 15:27:06;;;;;;;8.40;3.00;;;;;;;;;;106262;1279;23769;-81
2023/05/26 15:29:33;;;;;;;11.70;3.20;;;;;;;;;;106132;1282;24598;-79
2023/05/26 15:32:00;;;;;;;13.40;3.50;;;;;;;;;;106035;1278;22567;-81
2023/05/26 15:34:27;;;;;;;11.60;3.10;;;;;;;;;;106284;1279;25370;-79
2023/05/26 15:36:58;;;;;;;10.60;2.90;;;;;;;;;;106290;1283;25510;-82
2023/05/26 15:39:24;;;;;;;11.10;3.00;;;;;;;;;;106962;1268;22483;-81
2023/05/26 15:41:51;;;;;;;9.00;2.70;;;;;;;;;;107212;1269;25341;-81
2023/05/26 15:44:21;;;;;;;11.40;2.70;;;;;;;;;;106951;1256;25220;-80
2023/05/26 15:46:49;;;;;;;9.90;2.70;;;;;;;;;;107063;1272;24307;-83
2023/05/26 15:49:29;;;;;;;11.30;2.90;;;;;;;;;;106955;1272;24036;-82
2023/05/26 15:51:58;;;;;;;12.90;3.10;;;;;;;;;;106903;1276;22526;-84
2023/05/26 15:54:30;;;;;;;11.10;3.20;;;;;;;;;;106924;1259;22517;-82
2023/05/26 15:56:57;;;;;;;13.00;2.70;;;;;;;;;;107032;1276;24193;-82
2023/05/26 15:59:24;;;;;;;11.80;3.10;;;;;;;;;;106971;1276;25350;-81
2023/05/26 16:01:53;;;;;;;9.90;2.70;;;;;;;;;;106904;1276;25262;-88
2023/05/26 16:04:26;;;;;;;10.20;3.00;;;;;;;;;;106920;1275;22483;-86
2023/05/26 16:06:53;;;;;;;10.30;2.90;;;;;;;;;;107113;1276;25245;-88
2023/05/26 16:09:20;;;;;;;12.50;3.30;;;;;;;;;;106941;1276;22526;-86
2023/05/26 16:11:56;;;;;;;10.40;3.10;;;;;;;;;;106943;1275;24205;-85
2023/05/26 16:14:23;;;;;;;11.40;3.30;;;;;;;;;;107052;1259;25351;-82
2023/05/26 16:16:55;;;;;;;9.00;3.00;;;;;;;;;;107106;1275;22524;-81
2023/05/26 16:19:21;;;;;;;10.30;3.30;;;;;;;;;;107083;1275;25343;-85
2023/05/26 16:21:48;;;;;;;11.50;3.40;;;;;;;;;;107059;1275;22613;-85
2023/05/26 16:24:15;;;;;;;10.20;3.00;;;;;;;;;;106962;1259;22606;-78
2023/05/26 16:26:52;;;;;;;12.00;3.40;;;;;;;;;;107080;1276;25356;-86
2023/05/26 16:29:23;;;;;;;11.00;3.30;;;;;;;;;;107133;1275;25291;-86
2023/05/26 16:31:50;;;;;;;10.20;3.30;;;;;;;;;;107082;1276;22639;-89
2023/05/26 16:34:16;;;;;;;10.40;2.90;;;;;;;;;;106967;1269;25246;-82
2023/05/26 16:36:43;;;;;;;9.90;3.10;;;;;;;;;;107134;1275;22527;-85
2023/05/26 16:39:13;;;;;;;11.90;3.30;;;;;;;;;;106914;1276;22521;-85
2023/05/26 16:41:44;;;;;;;10.90;2.70;;;;;;;;;;107082;1275;24445;-82
2023/05/26 16:44:11;;;;;;;11.50;3.20;;;;;;;;;;106967;1257;22532;-85
2023/05/26 16:46:51;;;;;;;9.50;2.90;;;;;;;;;;106895;1276;24072;-87
2023/05/26 16:49:17;;;;;;;10.20;3.20;;;;;;;;;;107113;1276;25466;-81
2023/05/26 16:51:47;;;;;;;11.70;2.90;;;;;;;;;;107031;1276;23876;-82
2023/05/26 16:54:14;;;;;;;10.40;2.60;;;;;;;;;;106993;1275;22499;-84
2023/05/26 16:56:40;;;;;;;8.90;2.50;;;;;;;;;;107037;1276;25371;-85
2023/05/26 16:59:07;;;;;;;10.20;2.60;;;;;;;;;;106962;1275;25615;-84
2023/05/26 17:01:44;;;;;;;10.60;2.30;;;;;;;;;;106953;1275;24263;-81
2023/05/26 17:04:11;;;;;;;9.10;2.70;;;;;;;;;;107023;1257;23372;-84
2023/05/26 17:06:41;;;;;;;10.20;2.30;;;;;;;;;;107059;1276;25272;-82
2023/05/26 17:09:10;;;;;;;8.20;2.50;;;;;;;;;;107017;1270;22609;-84
2023/05/26 17:11:42;;;;;;;11.80;3.20;;;;;;;;;;106945;1276;25272;-85